This is the latest recevied weather packets stored in our database for station/object DK8HC-WX. If no packets are shown the sender has not sent any weather packets the latest 10 day(s).
| Time | Temp. | Humidity | Pressure | Rain* | Wind** | Luminosity | Snow |
|---|---|---|---|---|---|---|---|
| 1777610493 | 7.22° C | 100% | 1030.1 hPa | - | - | - | - |
| 1777609893 | 6.11° C | 100% | 1030 hPa | - | - | - | - |
| 1777608693 | 5° C | 100% | 1029.8 hPa | - | - | - | - |
| 1777608093 | 5.56° C | 100% | 1029.7 hPa | - | - | - | - |
| 1777607493 | 5.56° C | 100% | 1029.6 hPa | - | - | - | - |
| 1777606893 | 6.11° C | 100% | 1029.6 hPa | - | - | - | - |
| 1777606293 | 6.11° C | 100% | 1029.6 hPa | - | - | - | - |
| 1777605693 | 6.11° C | 100% | 1029.5 hPa | - | - | - | - |
| 1777605093 | 6.67° C | 100% | 1029.7 hPa | - | - | - | - |
| 1777604493 | 6.67° C | 100% | 1029.7 hPa | - | - | - | - |
| 1777603893 | 6.67° C | 100% | 1029.8 hPa | - | - | - | - |
| 1777603293 | 6.67° C | 100% | 1029.9 hPa | - | - | - | - |
| 1777602693 | 6.67° C | 100% | 1029.8 hPa | - | - | - | - |
| 1777602092 | 6.67° C | 100% | 1030 hPa | - | - | - | - |
| 1777585892 | 9.44° C | 100% | 1030.3 hPa | - | - | - | - |
| 1777584091 | 10.56° C | 93% | 1030.7 hPa | - | - | - | - |
| 1777582891 | 11.11° C | 88% | 1030.7 hPa | - | - | - | - |
| 1777579891 | 11.11° C | 90% | 1030.8 hPa | - | - | - | - |
| 1777579291 | 11.11° C | 83% | 1030.8 hPa | - | - | - | - |
| 1777577491 | 12.22° C | 72% | 1030.9 hPa | - | - | - | - |
| 1777576891 | 12.78° C | 68% | 1030.8 hPa | - | - | - | - |
| 1777569690 | 16.11° C | 48% | 1031.4 hPa | - | - | - | - |
| 1777569090 | 16.11° C | 47% | 1031.4 hPa | - | - | - | - |
| 1777567890 | 16.67° C | 45% | 1031.6 hPa | - | - | - | - |
| 1777566690 | 16.67° C | 42% | 1031.8 hPa | - | - | - | - |
* Rain since midnight (hover to see other rain measurements)
** Current wind speed in m/s (hover to see current wind gust speed)